createdAt,value
2022-12-29T00:00:15.369Z,99130.66
2022-12-29T00:02:43.009Z,99130.56
2022-12-29T00:05:10.521Z,99124.13
2022-12-29T00:07:37.940Z,99146.38
2022-12-29T00:10:08.683Z,99139.75
2022-12-29T00:12:54.763Z,99139.22
2022-12-29T00:15:40.473Z,99131.69
2022-12-29T00:18:08.710Z,99138.28
2022-12-29T00:20:55.767Z,99142.53
2022-12-29T00:23:41.355Z,99140.47
2022-12-29T00:26:32.879Z,99143.72
2022-12-29T00:29:19.616Z,99158.31
2022-12-29T00:32:05.849Z,99149.53
2022-12-29T00:34:51.646Z,99159.66
2022-12-29T00:37:38.842Z,99155.19
2022-12-29T00:40:25.357Z,99156.88
2022-12-29T00:43:13.706Z,99155.34
2022-12-29T00:45:42.088Z,99145.13
2022-12-29T00:48:09.460Z,99157.44
2022-12-29T00:50:37.044Z,99168.78
2022-12-29T00:53:04.315Z,99167.09
2022-12-29T00:55:31.918Z,99167.28
2022-12-29T00:58:00.921Z,99159.28
2022-12-29T01:00:28.241Z,99167.34
2022-12-29T01:02:56.966Z,99153.91
2022-12-29T01:05:24.429Z,99163.88
2022-12-29T01:07:51.735Z,99162.50
2022-12-29T01:10:19.037Z,99164.81
2022-12-29T01:12:46.479Z,99156.75
2022-12-29T01:15:16.032Z,99161.22
2022-12-29T01:17:43.604Z,99169.19
2022-12-29T01:20:12.171Z,99167.84
2022-12-29T01:22:40.171Z,99169.59
2022-12-29T01:25:08.696Z,99169.47
2022-12-29T01:27:36.093Z,99169.47
2022-12-29T01:30:03.715Z,99156.91
2022-12-29T01:32:34.810Z,99167.66
2022-12-29T01:35:02.151Z,99168.66
2022-12-29T01:37:30.545Z,99182.06
2022-12-29T01:39:57.772Z,99186.28
2022-12-29T01:42:27.372Z,99175.69
2022-12-29T01:44:57.829Z,99172.22
2022-12-29T01:47:35.904Z,99172.13
2022-12-29T01:50:10.203Z,99177.31
2022-12-29T01:52:41.957Z,99169.56
2022-12-29T01:55:11.168Z,99165.69
2022-12-29T01:57:42.144Z,99174.78
2022-12-29T02:00:12.120Z,99179.09
2022-12-29T02:02:46.225Z,99178.69
2022-12-29T02:05:20.966Z,99190.97
2022-12-29T02:07:49.867Z,99187.03
2022-12-29T02:10:20.890Z,99183.22
2022-12-29T02:12:48.967Z,99189.13
2022-12-29T02:15:17.832Z,99185.50
2022-12-29T02:18:04.585Z,99182.19
2022-12-29T02:21:15.863Z,99193.94
2022-12-29T02:24:18.281Z,99192.00
2022-12-29T02:27:14.472Z,99186.50
2022-12-29T02:30:05.985Z,99187.47
2022-12-29T02:32:43.971Z,99205.28
2022-12-29T02:35:21.273Z,99195.50
2022-12-29T02:37:59.587Z,99199.03
2022-12-29T02:40:35.898Z,99199.13
2022-12-29T02:43:09.992Z,99193.47
2022-12-29T02:45:45.112Z,99197.19
2022-12-29T02:48:19.682Z,99205.69
2022-12-29T02:50:57.953Z,99197.84
2022-12-29T02:53:44.809Z,99203.66
2022-12-29T02:56:12.110Z,99199.00
2022-12-29T02:58:39.518Z,99204.97
2022-12-29T03:01:23.257Z,99202.00
2022-12-29T03:04:11.586Z,99199.00
2022-12-29T03:06:53.348Z,99190.72
2022-12-29T03:09:32.565Z,99188.78
2022-12-29T03:12:11.889Z,99202.69
2022-12-29T03:15:09.566Z,99197.88
2022-12-29T03:17:47.568Z,99203.19
2022-12-29T03:20:21.818Z,99203.19
2022-12-29T03:22:54.874Z,99210.16
2022-12-29T03:25:29.573Z,99226.88
2022-12-29T03:28:02.213Z,99214.34
2022-12-29T03:30:33.853Z,99220.16
2022-12-29T03:33:07.398Z,99219.38
2022-12-29T03:35:39.044Z,99203.53
2022-12-29T03:38:14.714Z,99221.81
2022-12-29T03:40:46.090Z,99226.25
2022-12-29T03:43:14.430Z,99218.41
2022-12-29T03:45:42.542Z,99226.16
2022-12-29T03:48:10.506Z,99235.69
2022-12-29T03:50:41.981Z,99240.53
2022-12-29T03:53:09.387Z,99245.72
2022-12-29T03:55:36.818Z,99260.75
2022-12-29T03:58:04.149Z,99242.16
2022-12-29T04:00:49.517Z,99253.97
2022-12-29T04:03:16.949Z,99249.03
2022-12-29T04:05:47.383Z,99259.97
2022-12-29T04:08:14.823Z,99260.22
2022-12-29T04:10:42.359Z,99258.50
2022-12-29T04:13:10.059Z,99265.72
2022-12-29T04:15:37.751Z,99262.06
2022-12-29T04:18:05.207Z,99265.72
2022-12-29T04:20:53.650Z,99262.69
2022-12-29T04:23:22.490Z,99266.75
2022-12-29T04:25:49.848Z,99264.00
2022-12-29T04:28:18.278Z,99271.53
2022-12-29T04:30:46.990Z,99271.38
2022-12-29T04:33:23.833Z,99269.53
2022-12-29T04:35:51.334Z,99264.50
2022-12-29T04:38:18.726Z,99274.44
2022-12-29T04:40:49.224Z,99263.19
2022-12-29T04:43:20.382Z,99268.47
2022-12-29T04:46:17.237Z,99271.78
2022-12-29T04:49:09.895Z,99285.53
2022-12-29T04:51:49.265Z,99279.94
2022-12-29T04:54:17.903Z,99278.34
2022-12-29T04:56:52.844Z,99284.94
2022-12-29T04:59:20.151Z,99283.09
2022-12-29T05:01:50.376Z,99282.47
2022-12-29T05:04:18.091Z,99289.97
2022-12-29T05:06:45.484Z,99290.03
2022-12-29T05:09:13.469Z,99291.91
2022-12-29T05:11:41.880Z,99293.09
2022-12-29T05:14:11.945Z,99294.22
2022-12-29T05:16:39.336Z,99281.09
2022-12-29T05:19:06.864Z,99302.13
2022-12-29T05:21:35.586Z,99297.28
2022-12-29T05:24:03.167Z,99301.69
2022-12-29T05:26:30.613Z,99304.47
2022-12-29T05:29:18.319Z,99300.66
2022-12-29T05:31:46.091Z,99303.00
2022-12-29T05:34:13.733Z,99311.69
2022-12-29T05:36:41.853Z,99311.19
2022-12-29T05:39:11.013Z,99306.31
2022-12-29T05:41:38.827Z,99312.06
2022-12-29T05:44:28.832Z,99325.25
2022-12-29T05:47:12.119Z,99325.91
2022-12-29T05:50:01.265Z,99317.75
2022-12-29T05:52:34.778Z,99323.34
2022-12-29T05:55:02.195Z,99328.13
2022-12-29T05:57:31.811Z,99325.13
2022-12-29T06:00:09.391Z,99321.59
2022-12-29T06:02:42.314Z,99316.75
2022-12-29T06:05:10.424Z,99318.69
2022-12-29T06:07:39.833Z,99321.53
2022-12-29T06:10:08.074Z,99331.66
2022-12-29T06:12:45.015Z,99337.78
2022-12-29T06:15:14.210Z,99326.47
2022-12-29T06:17:42.936Z,99330.91
2022-12-29T06:20:11.613Z,99330.97
2022-12-29T06:22:38.984Z,99323.81
2022-12-29T06:25:07.140Z,99335.47
2022-12-29T06:27:35.625Z,99335.41
2022-12-29T06:30:03.330Z,99330.47
2022-12-29T06:32:34.138Z,99333.53
2022-12-29T06:35:06.999Z,99337.44
2022-12-29T06:37:38.595Z,99343.09
2022-12-29T06:40:06.946Z,99335.00
2022-12-29T06:42:50.250Z,99344.97
2022-12-29T06:45:39.663Z,99342.91
2022-12-29T06:48:09.035Z,99337.41
2022-12-29T06:50:36.540Z,99332.56
2022-12-29T06:53:04.085Z,99338.38
2022-12-29T06:55:31.447Z,99336.75
2022-12-29T06:57:59.739Z,99338.38
2022-12-29T07:00:27.056Z,99342.28
2022-12-29T07:02:56.617Z,99341.94
2022-12-29T07:05:27.971Z,99335.00
2022-12-29T07:07:55.379Z,99338.84
2022-12-29T07:10:22.927Z,99347.13
2022-12-29T07:12:50.380Z,99349.94
2022-12-29T07:15:18.213Z,99340.13
2022-12-29T07:17:45.630Z,99347.00
2022-12-29T07:20:12.996Z,99348.47
2022-12-29T07:22:41.767Z,99347.06
2022-12-29T07:25:09.952Z,99339.09
2022-12-29T07:27:37.454Z,99338.28
2022-12-29T07:30:05.733Z,99348.69
2022-12-29T07:32:34.528Z,99337.84
2022-12-29T07:35:02.073Z,99334.59
2022-12-29T07:37:30.966Z,99349.66
2022-12-29T07:39:59.578Z,99347.22
2022-12-29T07:42:26.892Z,99347.22
2022-12-29T07:44:56.208Z,99356.16
2022-12-29T07:47:34.381Z,99353.28
2022-12-29T07:50:02.069Z,99345.91
2022-12-29T07:52:31.345Z,99349.28
2022-12-29T07:55:00.066Z,99356.03
2022-12-29T07:57:31.719Z,99352.31
2022-12-29T07:59:59.456Z,99352.53
2022-12-29T08:02:27.856Z,99354.59
2022-12-29T08:04:55.306Z,99360.19
2022-12-29T08:07:22.691Z,99362.75
2022-12-29T08:09:50.044Z,99373.94
2022-12-29T08:12:19.076Z,99371.06
2022-12-29T08:14:46.751Z,99374.16
2022-12-29T08:17:14.005Z,99376.59
2022-12-29T08:19:42.469Z,99377.53
2022-12-29T08:22:10.038Z,99369.25
2022-12-29T08:24:37.456Z,99367.75
2022-12-29T08:27:14.614Z,99372.06
2022-12-29T08:29:48.776Z,99369.41
2022-12-29T08:32:17.241Z,99369.25
2022-12-29T08:34:44.693Z,99372.47
2022-12-29T08:37:12.024Z,99379.06
2022-12-29T08:39:39.924Z,99377.13
2022-12-29T08:42:07.508Z,99381.91
2022-12-29T08:44:34.879Z,99369.97
2022-12-29T08:47:03.685Z,99368.16
2022-12-29T08:49:31.127Z,99368.97
2022-12-29T08:51:58.466Z,99365.19
2022-12-29T08:54:26.218Z,99368.59
2022-12-29T08:56:54.808Z,99364.66
2022-12-29T08:59:26.460Z,99360.91
2022-12-29T09:01:53.915Z,99369.66
2022-12-29T09:04:24.736Z,99365.97
2022-12-29T09:06:52.228Z,99357.88
2022-12-29T09:09:19.542Z,99352.84
2022-12-29T09:11:47.265Z,99358.84
2022-12-29T09:14:15.161Z,99368.44
2022-12-29T09:17:01.423Z,99362.56
2022-12-29T09:19:31.615Z,99367.44
2022-12-29T09:21:58.905Z,99364.75
2022-12-29T09:24:26.318Z,99366.47
2022-12-29T09:26:54.022Z,99361.63
2022-12-29T09:29:21.493Z,99371.78
2022-12-29T09:31:48.906Z,99356.41
2022-12-29T09:34:16.721Z,99365.31
2022-12-29T09:36:45.315Z,99370.91
2022-12-29T09:39:13.865Z,99365.75
2022-12-29T09:41:49.876Z,99366.22
2022-12-29T09:44:24.551Z,99358.22
2022-12-29T09:46:55.036Z,99360.09
2022-12-29T09:49:30.022Z,99362.09
2022-12-29T09:52:03.785Z,99368.75
2022-12-29T09:54:54.939Z,99356.44
2022-12-29T09:57:30.924Z,99338.75
2022-12-29T10:00:05.314Z,99369.03
2022-12-29T10:02:44.031Z,99358.84
2022-12-29T10:05:28.792Z,99359.03
2022-12-29T10:08:17.505Z,99356.66
2022-12-29T10:10:54.622Z,99358.06
2022-12-29T10:13:29.749Z,99351.50
2022-12-29T10:16:07.498Z,99354.66
2022-12-29T10:19:02.346Z,99359.09
2022-12-29T10:21:46.100Z,99360.88
2022-12-29T10:24:15.113Z,99359.25
2022-12-29T10:26:44.339Z,99361.94
2022-12-29T10:29:18.044Z,99363.25
2022-12-29T10:31:49.279Z,99373.59
2022-12-29T10:34:21.998Z,99372.47
2022-12-29T10:36:52.084Z,99363.13
2022-12-29T10:39:28.431Z,99373.25
2022-12-29T10:42:04.656Z,99373.91
2022-12-29T10:44:33.181Z,99368.91
2022-12-29T10:47:05.841Z,99373.56
2022-12-29T10:49:40.680Z,99375.03
2022-12-29T10:56:45.440Z,99369.03
2022-12-29T10:59:21.032Z,99365.66
2022-12-29T11:01:59.667Z,99351.41
2022-12-29T11:04:41.717Z,99362.50
2022-12-29T11:07:15.641Z,99358.84
2022-12-29T11:09:45.384Z,99354.59
2022-12-29T11:12:23.116Z,99353.97
2022-12-29T11:15:03.676Z,99348.25
2022-12-29T11:17:31.348Z,99339.47
2022-12-29T11:19:58.550Z,99328.97
2022-12-29T11:22:28.772Z,99344.84
2022-12-29T11:25:07.190Z,99344.03
2022-12-29T11:27:36.246Z,99341.69
2022-12-29T11:30:12.510Z,99338.78
2022-12-29T11:32:52.807Z,99349.94
2022-12-29T11:35:32.081Z,99339.19
2022-12-29T11:38:01.028Z,99350.94
2022-12-29T11:40:28.639Z,99350.75
2022-12-29T11:42:59.985Z,99346.56
2022-12-29T11:45:30.183Z,99311.50
2022-12-29T11:48:00.186Z,99337.16
2022-12-29T11:50:31.002Z,99337.16
2022-12-29T11:53:01.644Z,99349.63
2022-12-29T11:55:30.621Z,99359.69
2022-12-29T11:58:03.657Z,99357.16
2022-12-29T12:00:35.653Z,99360.47
2022-12-29T12:03:05.587Z,99366.63
2022-12-29T12:05:41.181Z,99364.75
2022-12-29T12:08:20.519Z,99362.06
2022-12-29T12:10:54.391Z,99346.06
2022-12-29T12:13:30.935Z,99360.69
2022-12-29T12:16:03.552Z,99370.53
2022-12-29T12:18:41.833Z,99367.09
2022-12-29T12:21:26.510Z,99368.66
2022-12-29T12:24:21.657Z,99364.50
2022-12-29T12:26:59.537Z,99366.13
2022-12-29T12:29:37.672Z,99374.38
2022-12-29T12:32:14.824Z,99361.25
2022-12-29T12:34:44.203Z,99348.31
2022-12-29T12:37:27.013Z,99365.50
2022-12-29T12:40:19.055Z,99368.16
2022-12-29T12:42:57.068Z,99360.25
2022-12-29T12:45:44.138Z,99373.44
2022-12-29T12:48:31.352Z,99357.72
2022-12-29T12:51:05.227Z,99358.78
2022-12-29T12:53:52.782Z,99367.44
2022-12-29T12:57:02.135Z,99361.94
2022-12-29T12:59:44.557Z,99350.94
2022-12-29T13:02:28.744Z,99357.41
2022-12-29T13:05:31.345Z,99365.31
2022-12-29T13:08:15.968Z,99363.97
2022-12-29T13:10:53.475Z,99354.22
2022-12-29T13:13:45.498Z,99359.81
2022-12-29T13:16:22.992Z,99360.78
2022-12-29T13:18:57.791Z,99367.34
2022-12-29T13:21:35.310Z,99364.84
2022-12-29T13:24:10.581Z,99370.91
2022-12-29T13:26:44.133Z,99365.97
2022-12-29T13:29:18.709Z,99353.09
2022-12-29T13:31:53.440Z,99368.66
2022-12-29T13:34:37.694Z,99381.09
2022-12-29T13:37:10.900Z,99371.94
2022-12-29T13:39:42.444Z,99365.31
2022-12-29T13:42:12.804Z,99357.22
2022-12-29T13:44:46.398Z,99363.84
2022-12-29T13:47:23.125Z,99362.38
2022-12-29T13:49:53.236Z,99369.19
2022-12-29T13:52:32.948Z,99365.94
2022-12-29T13:55:09.841Z,99371.59
2022-12-29T13:57:46.975Z,99360.75
2022-12-29T14:00:17.888Z,99373.88
2022-12-29T14:03:09.829Z,99374.69
2022-12-29T14:05:38.865Z,99365.47
2022-12-29T14:08:15.395Z,99351.06
2022-12-29T14:10:49.635Z,99359.97
2022-12-29T14:13:19.729Z,99378.88
2022-12-29T14:15:53.223Z,99373.72
2022-12-29T14:18:24.100Z,99361.25
2022-12-29T14:20:58.523Z,99365.47
2022-12-29T14:23:44.748Z,99370.47
2022-12-29T14:26:14.061Z,99367.72
2022-12-29T14:28:43.146Z,99373.72
2022-12-29T14:31:35.782Z,99371.88
2022-12-29T14:34:30.042Z,99371.78
2022-12-29T14:37:01.051Z,99368.53
2022-12-29T14:39:36.231Z,99362.06
2022-12-29T14:42:07.322Z,99368.53
2022-12-29T14:44:35.522Z,99366.91
2022-12-29T14:47:10.087Z,99373.56
2022-12-29T14:49:43.833Z,99363.69
2022-12-29T14:52:20.692Z,99354.38
2022-12-29T14:54:51.187Z,99358.09
2022-12-29T14:57:27.258Z,99370.47
2022-12-29T14:59:57.418Z,99368.94
2022-12-29T15:02:29.569Z,99369.75
2022-12-29T15:05:01.135Z,99373.28
2022-12-29T15:07:32.458Z,99370.78
2022-12-29T15:10:06.291Z,99369.31
2022-12-29T15:12:40.002Z,99374.19
2022-12-29T15:15:24.903Z,99378.22
2022-12-29T15:17:52.498Z,99381.56
2022-12-29T15:20:26.276Z,99391.53
2022-12-29T15:22:58.739Z,99384.06
2022-12-29T15:25:27.474Z,99382.31
2022-12-29T15:28:01.244Z,99377.28
2022-12-29T15:30:28.566Z,99375.72
2022-12-29T15:32:56.089Z,99364.97
2022-12-29T15:35:29.995Z,99354.28
2022-12-29T15:38:00.295Z,99363.13
2022-12-29T15:40:29.462Z,99363.19
2022-12-29T15:43:24.954Z,99363.34
2022-12-29T15:45:54.073Z,99355.09
2022-12-29T15:48:24.294Z,99359.47
2022-12-29T15:50:52.962Z,99362.53
2022-12-29T15:53:27.137Z,99356.47
2022-12-29T15:55:58.392Z,99348.78
2022-12-29T15:58:32.040Z,99350.59
2022-12-29T16:01:01.319Z,99347.84
2022-12-29T16:03:32.174Z,99352.84
2022-12-29T16:06:11.351Z,99342.06
2022-12-29T16:08:41.313Z,99336.09
2022-12-29T16:11:22.675Z,99342.75
2022-12-29T16:13:52.374Z,99339.31
2022-12-29T16:16:23.404Z,99337.56
2022-12-29T16:18:57.614Z,99334.16
2022-12-29T16:21:29.818Z,99328.41
2022-12-29T16:24:02.942Z,99314.25
2022-12-29T16:26:30.742Z,99318.06
2022-12-29T16:29:00.856Z,99312.47
2022-12-29T16:31:36.091Z,99313.22
2022-12-29T16:38:15.992Z,99320.00
2022-12-29T16:40:53.343Z,99310.03
2022-12-29T16:43:24.254Z,99308.59
2022-12-29T16:46:20.613Z,99306.59
2022-12-29T16:48:51.180Z,99309.81
2022-12-29T16:51:23.352Z,99285.53
2022-12-29T16:53:56.227Z,99308.22
2022-12-29T16:56:28.586Z,99310.78
2022-12-29T16:59:05.846Z,99306.72
2022-12-29T17:01:37.425Z,99307.47
2022-12-29T17:04:08.940Z,99309.34
2022-12-29T17:06:36.505Z,99327.69
2022-12-29T17:09:43.869Z,99312.47
2022-12-29T17:12:20.868Z,99324.53
2022-12-29T17:14:52.319Z,99308.53
2022-12-29T17:17:32.575Z,99310.16
2022-12-29T17:20:06.949Z,99317.91
2022-12-29T17:22:34.731Z,99311.16
2022-12-29T17:25:05.627Z,99311.16
2022-12-29T17:27:39.198Z,99306.91
2022-12-29T17:30:36.465Z,99296.88
2022-12-29T17:33:09.098Z,99302.75
2022-12-29T17:35:37.106Z,99294.28
2022-12-29T17:38:12.012Z,99302.63
2022-12-29T17:40:52.429Z,99300.19
2022-12-29T17:43:21.209Z,99294.28
2022-12-29T17:45:53.882Z,99294.19
2022-12-29T17:48:22.019Z,99281.75
2022-12-29T17:50:52.802Z,99261.50
2022-12-29T17:53:22.779Z,99281.75
2022-12-29T17:55:50.012Z,99289.16
2022-12-29T17:58:23.789Z,99273.22
2022-12-29T18:00:53.638Z,99262.88
2022-12-29T18:03:25.222Z,99280.38
2022-12-29T18:05:52.787Z,99275.19
2022-12-29T18:08:20.212Z,99270.34
2022-12-29T18:10:47.882Z,99270.16
2022-12-29T18:13:21.755Z,99243.56
2022-12-29T18:15:52.275Z,99282.38
2022-12-29T18:18:28.172Z,99273.25
2022-12-29T18:20:58.849Z,99279.63
2022-12-29T18:23:27.859Z,99255.13
2022-12-29T18:25:59.477Z,99284.56
2022-12-29T18:28:27.489Z,99281.31
2022-12-29T18:30:58.439Z,99268.06
2022-12-29T18:33:29.403Z,99277.06
2022-12-29T18:35:58.925Z,99282.94
2022-12-29T18:38:27.158Z,99274.69
2022-12-29T18:40:54.839Z,99258.44
2022-12-29T18:43:23.194Z,99283.75
2022-12-29T18:45:51.025Z,99265.56
2022-12-29T18:48:20.745Z,99272.91
2022-12-29T18:50:51.234Z,99277.94
2022-12-29T18:53:25.429Z,99266.28
2022-12-29T18:55:53.499Z,99271.28
2022-12-29T18:58:21.240Z,99266.22
2022-12-29T19:00:48.959Z,99263.06
2022-12-29T19:03:18.706Z,99265.81
2022-12-29T19:05:49.137Z,99269.03
2022-12-29T19:08:18.943Z,99267.41
2022-12-29T19:10:47.185Z,99270.09
2022-12-29T19:13:17.781Z,99251.41
2022-12-29T19:15:46.871Z,99249.72
2022-12-29T19:21:07.682Z,99258.75
2022-12-29T19:23:37.210Z,99265.97
2022-12-29T19:26:04.741Z,99259.31
2022-12-29T19:28:32.649Z,99260.88
2022-12-29T19:31:02.178Z,99260.22
2022-12-29T19:33:29.839Z,99258.50
2022-12-29T19:36:03.122Z,99253.66
2022-12-29T19:38:32.708Z,99254.47
2022-12-29T19:41:00.195Z,99251.09
2022-12-29T19:43:27.410Z,99256.91
2022-12-29T19:45:54.734Z,99258.50
2022-12-29T19:48:22.154Z,99247.69
2022-12-29T19:50:49.512Z,99254.41
2022-12-29T19:53:17.148Z,99241.94
2022-12-29T19:55:47.932Z,99230.44
2022-12-29T19:58:18.477Z,99250.59
2022-12-29T20:00:46.042Z,99247.91
2022-12-29T20:03:13.796Z,99249.53
2022-12-29T20:05:42.482Z,99227.53
2022-12-29T20:08:09.849Z,99240.25
2022-12-29T20:10:39.449Z,99221.63
2022-12-29T20:13:09.451Z,99245.97
2022-12-29T20:15:36.950Z,99238.44
2022-12-29T20:18:14.243Z,99239.25
2022-12-29T20:20:42.622Z,99241.69
2022-12-29T20:23:10.323Z,99242.56
2022-12-29T20:25:53.937Z,99240.06
2022-12-29T20:28:23.160Z,99243.31
2022-12-29T20:31:00.193Z,99235.22
2022-12-29T20:33:28.372Z,99231.84
2022-12-29T20:35:55.773Z,99230.34
2022-12-29T20:38:23.232Z,99229.31
2022-12-29T20:40:50.648Z,99233.44
2022-12-29T20:43:17.994Z,99240.81
2022-12-29T20:45:47.165Z,99230.69
2022-12-29T20:48:14.983Z,99228.41
2022-12-29T20:50:42.334Z,99224.88
2022-12-29T20:53:09.822Z,99195.44
2022-12-29T20:55:40.879Z,99218.56
2022-12-29T20:58:25.309Z,99219.31
2022-12-29T21:00:55.487Z,99216.44
2022-12-29T21:03:23.530Z,99190.97
2022-12-29T21:05:52.701Z,99201.56
2022-12-29T21:08:21.440Z,99181.03
2022-12-29T21:10:50.089Z,99204.63
2022-12-29T21:13:18.101Z,99205.69
2022-12-29T21:15:46.228Z,99207.47
2022-12-29T21:18:15.227Z,99197.28
2022-12-29T21:20:42.513Z,99193.16
2022-12-29T21:23:10.194Z,99188.16
2022-12-29T21:25:43.293Z,99191.53
2022-12-29T21:28:13.690Z,99187.34
2022-12-29T21:30:41.682Z,99184.81
2022-12-29T21:33:09.505Z,99174.78
2022-12-29T21:35:38.958Z,99165.56
2022-12-29T21:38:07.219Z,99156.84
2022-12-29T21:40:36.317Z,99176.50
2022-12-29T21:43:04.132Z,99172.09
2022-12-29T21:45:34.575Z,99177.13
2022-12-29T21:48:24.061Z,99172.91
2022-12-29T21:51:13.242Z,99161.63
2022-12-29T21:53:42.828Z,99168.16
2022-12-29T21:56:12.123Z,99156.75
2022-12-29T21:58:59.419Z,99164.84
2022-12-29T22:01:46.723Z,99155.69
2022-12-29T22:04:34.258Z,99161.25
2022-12-29T22:07:21.911Z,99163.41
2022-12-29T22:10:08.148Z,99171.66
2022-12-29T22:12:54.783Z,99160.00
2022-12-29T22:15:22.565Z,99161.25
2022-12-29T22:17:51.616Z,99160.38
2022-12-29T22:20:19.711Z,99154.81
2022-12-29T22:22:49.226Z,99165.31
2022-12-29T22:25:17.087Z,99149.09
2022-12-29T22:27:44.946Z,99156.97
2022-12-29T22:30:13.261Z,99159.50
2022-12-29T22:32:41.080Z,99159.56
2022-12-29T22:35:09.989Z,99156.25
2022-12-29T22:37:39.702Z,99159.66
2022-12-29T22:40:11.132Z,99151.41
2022-12-29T22:42:40.324Z,99156.97
2022-12-29T22:45:08.841Z,99154.47
2022-12-29T22:47:36.125Z,99156.53
2022-12-29T22:50:03.541Z,99158.97
2022-12-29T22:52:31.674Z,99150.91
2022-12-29T22:55:04.577Z,99153.00
2022-12-29T22:57:35.038Z,99143.84
2022-12-29T23:00:03.499Z,99138.84
2022-12-29T23:02:31.771Z,99133.91
2022-12-29T23:05:03.511Z,99145.47
2022-12-29T23:07:32.646Z,99140.53
2022-12-29T23:09:59.979Z,99136.47
2022-12-29T23:12:30.545Z,99135.69
2022-12-29T23:14:59.550Z,99138.22
2022-12-29T23:17:26.916Z,99131.56
2022-12-29T23:19:54.806Z,99135.69
2022-12-29T23:22:23.190Z,99133.19
2022-12-29T23:24:50.965Z,99139.09
2022-12-29T23:27:18.536Z,99149.84
2022-12-29T23:29:45.871Z,99149.84
2022-12-29T23:32:14.975Z,99150.56
2022-12-29T23:34:42.421Z,99154.59
2022-12-29T23:37:09.692Z,99148.00
2022-12-29T23:39:37.283Z,99133.34
2022-12-29T23:42:04.895Z,99152.19
2022-12-29T23:44:32.105Z,99150.38
2022-12-29T23:46:59.864Z,99152.00
2022-12-29T23:49:28.689Z,99140.63
2022-12-29T23:51:56.163Z,99151.47
2022-12-29T23:54:25.437Z,99142.16
2022-12-29T23:56:52.977Z,99140.47
2022-12-29T23:59:20.393Z,99136.66
